createdAt,value
2019-02-16T00:01:59.553Z,23.50
2019-02-16T00:04:47.641Z,25.53
2019-02-16T00:07:35.754Z,29.47
2019-02-16T00:10:23.605Z,26.30
2019-02-16T00:13:11.429Z,26.23
2019-02-16T00:15:59.295Z,27.80
2019-02-16T00:18:47.424Z,21.60
2019-02-16T00:21:35.181Z,25.33
2019-02-16T00:24:23.010Z,19.73
2019-02-16T00:27:10.872Z,21.17
2019-02-16T00:29:58.910Z,25.20
2019-02-16T00:32:46.618Z,20.90
2019-02-16T00:35:34.654Z,20.27
2019-02-16T00:38:22.345Z,19.97
2019-02-16T00:41:10.121Z,24.37
2019-02-16T00:43:57.733Z,20.23
2019-02-16T00:46:45.518Z,17.60
2019-02-16T00:49:33.225Z,23.40
2019-02-16T00:52:21.321Z,20.57
2019-02-16T00:55:09.166Z,19.53
2019-02-16T00:57:56.905Z,20.80
2019-02-16T01:00:44.643Z,22.10
2019-02-16T01:03:32.365Z,18.97
2019-02-16T01:06:20.125Z,21.47
2019-02-16T01:09:08.087Z,24.67
2019-02-16T01:11:55.785Z,22.20
2019-02-16T01:14:43.643Z,18.47
2019-02-16T01:17:31.305Z,25.27
2019-02-16T01:20:18.934Z,19.97
2019-02-16T01:23:07.041Z,20.77
2019-02-16T01:25:54.921Z,19.67
2019-02-16T01:28:42.681Z,22.20
2019-02-16T01:31:30.270Z,27.53
2019-02-16T01:34:18.421Z,24.73
2019-02-16T01:37:06.072Z,22.30
2019-02-16T01:39:54.060Z,25.73
2019-02-16T01:42:41.850Z,22.77
2019-02-16T01:45:29.601Z,23.07
2019-02-16T01:48:17.436Z,17.50
2019-02-16T01:51:05.214Z,18.33
2019-02-16T01:53:52.939Z,19.23
2019-02-16T01:56:41.046Z,20.93
2019-02-16T01:59:31.805Z,19.50
2019-02-16T02:02:19.621Z,19.63
2019-02-16T02:05:07.815Z,19.73
2019-02-16T02:07:55.585Z,19.80
2019-02-16T02:10:43.445Z,21.53
2019-02-16T02:13:31.069Z,17.60
2019-02-16T02:16:18.702Z,18.37
2019-02-16T02:19:06.787Z,21.77
2019-02-16T02:21:54.830Z,19.20
2019-02-16T02:24:42.705Z,18.97
2019-02-16T02:27:30.609Z,22.57
2019-02-16T02:30:18.404Z,19.67
2019-02-16T02:33:05.983Z,22.90
2019-02-16T02:35:53.574Z,16.23
2019-02-16T02:38:41.347Z,19.47
2019-02-16T02:41:29.101Z,22.27
2019-02-16T02:44:16.901Z,20.20
2019-02-16T02:47:04.535Z,20.10
2019-02-16T02:49:52.490Z,17.73
2019-02-16T02:52:40.261Z,19.03
2019-02-16T02:55:28.169Z,21.13
2019-02-16T02:58:16.203Z,20.47
2019-02-16T03:01:04.253Z,17.93
2019-02-16T03:03:52.038Z,21.00
2019-02-16T03:06:39.893Z,18.03
2019-02-16T03:09:27.876Z,18.87
2019-02-16T03:12:15.819Z,23.97
2019-02-16T03:15:03.868Z,20.80
2019-02-16T03:17:51.763Z,17.13
2019-02-16T03:20:39.637Z,19.03
2019-02-16T03:23:27.771Z,18.40
2019-02-16T03:26:27.798Z,21.80
2019-02-16T03:29:28.485Z,21.50
2019-02-16T03:32:35.948Z,23.70
2019-02-16T03:35:29.849Z,20.87
2019-02-16T03:38:26.427Z,21.83
2019-02-16T03:41:14.413Z,21.03
2019-02-16T03:44:02.320Z,21.33
2019-02-16T03:46:50.213Z,22.97
2019-02-16T03:49:37.960Z,20.97
2019-02-16T03:52:25.621Z,22.83
2019-02-16T03:55:13.323Z,20.03
2019-02-16T03:58:01.374Z,22.50
2019-02-16T04:00:49.057Z,22.57
2019-02-16T04:03:36.833Z,20.33
2019-02-16T04:06:24.890Z,22.40
2019-02-16T04:09:12.597Z,20.80
2019-02-16T04:12:00.485Z,23.00
2019-02-16T04:14:48.429Z,21.03
2019-02-16T04:17:36.059Z,21.33
2019-02-16T04:20:23.899Z,17.70
2019-02-16T04:23:11.493Z,17.77
2019-02-16T04:25:59.366Z,19.77
2019-02-16T04:28:47.250Z,21.60
2019-02-16T04:31:34.899Z,26.63
2019-02-16T04:34:22.788Z,23.33
2019-02-16T04:37:10.659Z,19.00
2019-02-16T04:39:58.378Z,20.90
2019-02-16T04:42:46.257Z,22.50
2019-02-16T04:45:34.089Z,20.47
2019-02-16T04:48:21.984Z,17.77
2019-02-16T04:51:09.899Z,21.20
2019-02-16T04:53:57.729Z,20.03
2019-02-16T04:56:45.673Z,18.20
2019-02-16T04:59:33.578Z,20.87
2019-02-16T05:02:21.645Z,16.83
2019-02-16T05:05:09.543Z,16.47
2019-02-16T05:07:57.167Z,18.07
2019-02-16T05:10:45.029Z,16.90
2019-02-16T05:13:32.924Z,16.83
2019-02-16T05:16:20.789Z,16.37
2019-02-16T05:19:08.671Z,17.53
2019-02-16T05:21:56.722Z,16.83
2019-02-16T05:24:44.818Z,19.90
2019-02-16T05:27:32.447Z,24.37
2019-02-16T05:30:20.067Z,17.90
2019-02-16T05:33:07.725Z,16.67
2019-02-16T05:35:55.945Z,17.30
2019-02-16T05:38:43.529Z,16.93
2019-02-16T05:41:31.182Z,18.87
2019-02-16T05:44:19.033Z,25.43
2019-02-16T05:47:07.034Z,21.93
2019-02-16T05:49:54.885Z,19.87
2019-02-16T05:52:42.691Z,19.93
2019-02-16T05:55:30.659Z,19.80
2019-02-16T05:58:18.631Z,18.07
2019-02-16T06:01:06.543Z,19.07
2019-02-16T06:03:54.516Z,18.33
2019-02-16T06:06:42.317Z,17.33
2019-02-16T06:09:29.978Z,18.13
2019-02-16T06:12:17.515Z,16.93
2019-02-16T06:15:07.464Z,17.87
2019-02-16T06:17:55.113Z,16.93
2019-02-16T06:20:43.262Z,16.63
2019-02-16T06:23:31.535Z,20.57
2019-02-16T06:26:19.287Z,19.40
2019-02-16T06:29:07.250Z,17.13
2019-02-16T06:31:55.329Z,16.90
2019-02-16T06:34:43.221Z,23.10
2019-02-16T06:37:30.789Z,18.50
2019-02-16T06:40:18.482Z,17.60
2019-02-16T06:43:06.529Z,16.83
2019-02-16T06:45:54.272Z,17.30
2019-02-16T06:48:42.133Z,17.93
2019-02-16T06:51:29.997Z,19.40
2019-02-16T06:54:17.633Z,20.20
2019-02-16T06:57:06.978Z,17.30
2019-02-16T06:59:54.639Z,18.30
2019-02-16T07:02:42.409Z,18.33
2019-02-16T07:05:30.326Z,18.03
2019-02-16T07:08:17.921Z,22.17
2019-02-16T07:11:05.532Z,21.03
2019-02-16T07:13:53.357Z,22.60
2019-02-16T07:16:45.610Z,23.30
2019-02-16T07:19:35.532Z,25.47
2019-02-16T07:22:23.370Z,21.33
2019-02-16T07:25:11.006Z,25.20
2019-02-16T07:27:58.787Z,26.20
2019-02-16T07:30:46.899Z,26.50
2019-02-16T07:33:34.546Z,22.93
2019-02-16T07:36:24.191Z,22.30
2019-02-16T07:39:11.954Z,23.67
2019-02-16T07:42:00.095Z,23.30
2019-02-16T07:44:49.442Z,23.93
2019-02-16T07:47:38.952Z,24.23
2019-02-16T07:50:40.387Z,20.87
2019-02-16T07:53:36.070Z,21.90
2019-02-16T07:56:25.405Z,21.93
2019-02-16T07:59:18.112Z,19.10
2019-02-16T08:02:13.845Z,21.37
2019-02-16T08:05:03.672Z,19.43
2019-02-16T08:08:09.857Z,19.03
2019-02-16T08:10:59.546Z,20.37
2019-02-16T08:13:49.154Z,17.07
2019-02-16T08:16:41.441Z,21.27
2019-02-16T08:19:47.091Z,18.00
2019-02-16T08:22:36.568Z,18.63
2019-02-16T08:25:38.084Z,16.63
2019-02-16T08:28:30.844Z,19.47
2019-02-16T08:31:20.284Z,19.97
2019-02-16T08:34:27.886Z,19.70
2019-02-16T08:37:26.426Z,20.33
2019-02-16T08:40:33.878Z,21.67
2019-02-16T08:43:29.140Z,19.00
2019-02-16T08:46:33.686Z,24.97
2019-02-16T08:49:29.274Z,20.63
2019-02-16T08:52:18.585Z,24.53
2019-02-16T08:55:20.468Z,23.37
2019-02-16T08:58:13.217Z,20.17
2019-02-16T09:01:17.461Z,23.60
2019-02-16T09:04:10.661Z,22.30
2019-02-16T09:07:16.651Z,21.10
2019-02-16T09:10:14.175Z,19.50
2019-02-16T09:13:03.496Z,25.40
2019-02-16T09:16:11.756Z,22.93
2019-02-16T09:19:01.599Z,21.20
2019-02-16T09:21:51.442Z,18.90
2019-02-16T09:24:41.473Z,22.80
2019-02-16T09:27:37.284Z,26.23
2019-02-16T09:30:39.600Z,22.00
2019-02-16T09:33:35.261Z,24.30
2019-02-16T09:36:27.833Z,23.20
2019-02-16T09:39:26.519Z,23.87
2019-02-16T09:42:16.054Z,21.17
2019-02-16T09:45:06.095Z,23.93
2019-02-16T09:47:58.461Z,21.67
2019-02-16T09:50:56.798Z,21.33
2019-02-16T09:54:08.455Z,18.33
2019-02-16T09:57:08.649Z,19.43
2019-02-16T10:00:04.160Z,23.07
2019-02-16T10:02:53.665Z,28.43
2019-02-16T10:06:01.569Z,24.20
2019-02-16T10:08:57.148Z,18.90
2019-02-16T10:11:46.890Z,21.47
2019-02-16T10:14:39.240Z,20.23
2019-02-16T10:17:38.072Z,18.77
2019-02-16T10:20:30.492Z,22.27
2019-02-16T10:23:35.053Z,17.83
2019-02-16T10:26:33.664Z,17.23
2019-02-16T10:29:31.867Z,18.83
2019-02-16T10:32:21.681Z,18.37
2019-02-16T10:35:28.348Z,15.90
2019-02-16T10:38:26.953Z,17.27
2019-02-16T10:41:19.589Z,20.50
2019-02-16T10:44:11.817Z,19.90
2019-02-16T10:47:01.441Z,18.83
2019-02-16T10:49:54.133Z,19.43
2019-02-16T10:52:46.992Z,16.40
2019-02-16T10:55:53.390Z,18.63
2019-02-16T10:58:46.092Z,16.23
2019-02-16T11:01:53.816Z,18.03
2019-02-16T11:04:46.320Z,18.07
2019-02-16T11:07:51.101Z,15.40
2019-02-16T11:10:40.672Z,16.97
2019-02-16T11:13:30.786Z,15.17
2019-02-16T11:16:20.809Z,17.53
2019-02-16T11:19:13.416Z,16.83
2019-02-16T11:22:05.925Z,16.13
2019-02-16T11:25:11.787Z,14.37
2019-02-16T11:28:01.528Z,17.30
2019-02-16T11:30:53.748Z,17.93
2019-02-16T11:34:01.641Z,16.60
2019-02-16T11:36:54.081Z,20.87
2019-02-16T11:39:43.785Z,15.77
2019-02-16T11:42:36.088Z,19.53
2019-02-16T11:45:28.320Z,39.77
2019-02-16T11:48:26.690Z,20.57
2019-02-16T11:51:21.753Z,19.33
2019-02-16T11:54:11.601Z,19.97
2019-02-16T11:57:19.601Z,17.37
2019-02-16T12:00:30.354Z,16.23
2019-02-16T12:03:22.835Z,18.43
2019-02-16T12:06:12.585Z,17.13
2019-02-16T12:09:16.350Z,19.97
2019-02-16T12:12:23.621Z,17.17
2019-02-16T12:15:18.933Z,18.63
2019-02-16T12:18:20.656Z,17.00
2019-02-16T12:21:16.704Z,17.00
2019-02-16T12:24:06.852Z,17.70
2019-02-16T12:27:04.994Z,18.80
2019-02-16T12:30:00.844Z,18.17
2019-02-16T12:32:50.853Z,16.17
2019-02-16T12:35:40.217Z,20.00
2019-02-16T12:38:35.820Z,18.03
2019-02-16T12:41:34.483Z,16.87
2019-02-16T12:44:29.758Z,19.03
2019-02-16T12:47:31.333Z,19.17
2019-02-16T12:50:20.816Z,20.10
2019-02-16T12:53:25.773Z,14.43
2019-02-16T12:56:31.354Z,15.03
2019-02-16T12:59:24.358Z,17.20
2019-02-16T13:02:19.568Z,17.63
2019-02-16T13:05:18.254Z,14.80
2019-02-16T13:08:10.759Z,18.97
2019-02-16T13:11:06.084Z,18.37
2019-02-16T13:13:58.323Z,17.00
2019-02-16T13:16:47.618Z,16.03
2019-02-16T13:19:37.201Z,17.17
2019-02-16T13:22:26.393Z,18.57
2019-02-16T13:25:24.137Z,15.70
2019-02-16T13:28:19.273Z,16.77
2019-02-16T13:31:25.355Z,15.07
2019-02-16T13:34:17.944Z,16.30
2019-02-16T13:37:07.210Z,13.00
2019-02-16T13:39:59.206Z,14.77
2019-02-16T13:42:48.486Z,14.83
2019-02-16T13:45:50.065Z,17.93
2019-02-16T13:48:39.693Z,14.50
2019-02-16T13:51:29.898Z,16.17
2019-02-16T13:54:22.117Z,14.03
2019-02-16T13:57:11.334Z,10.97
2019-02-16T14:00:17.113Z,14.13
2019-02-16T14:03:15.810Z,15.10
2019-02-16T14:06:17.534Z,16.42
2019-02-16T14:09:25.510Z,18.23
2019-02-16T14:12:30.573Z,14.63
2019-02-16T14:15:26.289Z,16.93
2019-02-16T14:18:14.689Z,13.53
2019-02-16T14:21:02.565Z,13.33
2019-02-16T14:23:50.513Z,17.50
2019-02-16T14:26:38.348Z,17.20
2019-02-16T14:29:26.306Z,16.23
2019-02-16T14:32:14.295Z,14.73
2019-02-16T14:35:01.997Z,20.57
2019-02-16T14:37:57.669Z,20.47
2019-02-16T14:40:45.469Z,18.40
2019-02-16T14:43:33.818Z,17.20
2019-02-16T14:46:21.600Z,19.50
2019-02-16T14:49:09.569Z,18.83
2019-02-16T14:51:57.212Z,16.20
2019-02-16T14:54:45.189Z,18.50
2019-02-16T14:57:32.809Z,21.97
2019-02-16T15:00:20.567Z,18.27
2019-02-16T15:03:08.526Z,19.00
2019-02-16T15:05:56.432Z,16.57
2019-02-16T15:08:44.329Z,19.17
2019-02-16T15:11:32.309Z,22.63
2019-02-16T15:14:20.317Z,19.33
2019-02-16T15:17:08.265Z,18.00
2019-02-16T15:19:56.117Z,19.40
2019-02-16T15:22:43.892Z,18.97
2019-02-16T15:25:31.564Z,23.33
2019-02-16T15:28:19.422Z,18.67
2019-02-16T15:31:07.145Z,22.73
2019-02-16T15:33:55.052Z,19.47
2019-02-16T15:36:43.101Z,19.17
2019-02-16T15:39:30.666Z,21.40
2019-02-16T15:42:18.844Z,20.20
2019-02-16T15:45:10.010Z,15.57
2019-02-16T15:47:58.193Z,20.03
2019-02-16T15:50:46.119Z,16.97
2019-02-16T15:53:33.766Z,17.40
2019-02-16T15:56:21.785Z,18.43
2019-02-16T15:59:09.961Z,16.80
2019-02-16T16:01:57.889Z,16.30
2019-02-16T16:04:45.832Z,19.87
2019-02-16T16:07:33.760Z,18.23
2019-02-16T16:10:23.198Z,14.93
2019-02-16T16:13:12.508Z,18.70
2019-02-16T16:16:02.001Z,15.50
2019-02-16T16:19:00.951Z,18.53
2019-02-16T16:21:50.329Z,15.97
2019-02-16T16:24:43.292Z,18.27
2019-02-16T16:27:33.396Z,18.87
2019-02-16T16:30:25.863Z,25.10
2019-02-16T16:33:15.924Z,18.50
2019-02-16T16:36:17.113Z,20.47
2019-02-16T16:39:26.034Z,20.53
2019-02-16T16:42:18.308Z,18.93
2019-02-16T16:45:20.884Z,19.10
2019-02-16T16:48:10.921Z,21.23
2019-02-16T16:51:00.785Z,19.70
2019-02-16T16:53:59.609Z,20.40
2019-02-16T16:56:48.882Z,22.13
2019-02-16T16:59:42.162Z,24.23
2019-02-16T17:02:31.707Z,19.47
2019-02-16T17:05:38.121Z,25.03
2019-02-16T17:08:30.484Z,23.90
2019-02-16T17:11:23.580Z,21.37
2019-02-16T17:14:22.275Z,20.93
2019-02-16T17:17:14.773Z,19.77
2019-02-16T17:20:04.768Z,23.37
2019-02-16T17:23:11.067Z,21.90
2019-02-16T17:26:15.802Z,22.37
2019-02-16T17:29:05.302Z,23.37
2019-02-16T17:32:10.105Z,23.37
2019-02-16T17:34:59.608Z,20.63
2019-02-16T17:37:49.065Z,24.83
2019-02-16T17:40:50.541Z,27.80
2019-02-16T17:43:56.509Z,26.80
2019-02-16T17:47:00.677Z,26.17
2019-02-16T17:50:01.958Z,27.07
2019-02-16T17:53:07.961Z,24.53
2019-02-16T17:55:57.482Z,25.90
2019-02-16T17:58:46.781Z,26.37
2019-02-16T18:01:55.358Z,26.20
2019-02-16T18:04:59.988Z,31.47
2019-02-16T18:07:52.880Z,28.80
2019-02-16T18:10:42.285Z,29.90
2019-02-16T18:13:31.844Z,29.20
2019-02-16T18:16:33.857Z,31.30
2019-02-16T18:19:40.127Z,29.23
2019-02-16T18:22:35.425Z,28.97
2019-02-16T18:25:28.256Z,28.17
2019-02-16T18:28:26.510Z,26.40
2019-02-16T18:31:33.113Z,27.23
2019-02-16T18:34:25.690Z,26.00
2019-02-16T18:37:15.300Z,25.90
2019-02-16T18:40:21.103Z,30.17
2019-02-16T18:43:27.157Z,24.77
2019-02-16T18:46:16.950Z,28.40
2019-02-16T18:49:21.446Z,25.97
2019-02-16T18:52:16.789Z,27.40
2019-02-16T18:55:11.088Z,26.70
2019-02-16T18:58:00.657Z,30.73
2019-02-16T19:01:06.488Z,30.00
2019-02-16T19:03:58.955Z,25.67
2019-02-16T19:06:48.754Z,29.63
2019-02-16T19:09:50.269Z,28.20
2019-02-16T19:12:57.526Z,28.10
2019-02-16T19:15:47.331Z,29.20
2019-02-16T19:18:39.797Z,30.00
2019-02-16T19:21:29.489Z,30.70
2019-02-16T19:24:22.161Z,30.53
2019-02-16T19:27:16.722Z,34.27
2019-02-16T19:30:09.611Z,31.07
2019-02-16T19:32:59.239Z,29.73
2019-02-16T19:36:05.477Z,31.00
2019-02-16T19:38:57.084Z,31.67
2019-02-16T19:41:49.419Z,28.50
2019-02-16T19:44:39.463Z,30.97
2019-02-16T19:47:32.521Z,26.87
2019-02-16T19:50:22.691Z,26.40
2019-02-16T19:53:21.573Z,31.03
2019-02-16T19:56:17.056Z,33.13
2019-02-16T19:59:09.001Z,31.60
2019-02-16T20:02:04.497Z,30.77
2019-02-16T20:04:54.272Z,32.47
2019-02-16T20:07:43.492Z,31.20
2019-02-16T20:10:32.914Z,32.57
2019-02-16T20:13:25.660Z,33.90
2019-02-16T20:16:15.002Z,42.60
2019-02-16T20:19:20.612Z,32.53
2019-02-16T20:22:16.047Z,33.80
2019-02-16T20:25:22.321Z,31.07
2019-02-16T20:28:11.608Z,30.53
2019-02-16T20:31:00.838Z,31.57
2019-02-16T20:33:50.639Z,30.67
2019-02-16T20:36:45.708Z,32.23
2019-02-16T20:39:35.530Z,31.70
2019-02-16T20:42:24.948Z,28.50
2019-02-16T20:45:17.403Z,28.00
2019-02-16T20:48:07.442Z,27.90
2019-02-16T20:50:57.450Z,29.90
2019-02-16T20:53:48.764Z,29.33
2019-02-16T20:56:38.482Z,24.50
2019-02-16T20:59:28.093Z,30.13
2019-02-16T21:02:20.271Z,31.53
2019-02-16T21:05:26.166Z,28.60
2019-02-16T21:08:15.820Z,29.13
2019-02-16T21:11:05.982Z,29.13
2019-02-16T21:13:55.593Z,32.03
2019-02-16T21:16:45.493Z,28.07
2019-02-16T21:19:51.054Z,34.47
2019-02-16T21:22:46.745Z,35.63
2019-02-16T21:25:39.460Z,30.83
2019-02-16T21:28:41.145Z,31.07
2019-02-16T21:31:33.881Z,33.57
2019-02-16T21:34:26.569Z,37.10
2019-02-16T21:37:31.466Z,34.37
2019-02-16T21:40:21.027Z,35.70
2019-02-16T21:43:17.013Z,37.13
2019-02-16T21:46:09.870Z,31.90
2019-02-16T21:49:15.866Z,34.90
2019-02-16T21:52:23.661Z,34.97
2019-02-16T21:55:28.229Z,32.90
2019-02-16T21:58:21.357Z,32.43
2019-02-16T22:01:11.160Z,33.33
2019-02-16T22:04:01.177Z,30.70
2019-02-16T22:06:56.169Z,33.30
2019-02-16T22:09:47.169Z,32.03
2019-02-16T22:12:46.026Z,34.70
2019-02-16T22:15:33.825Z,35.37
2019-02-16T22:18:21.419Z,32.07
2019-02-16T22:21:09.321Z,30.40
2019-02-16T22:23:57.472Z,33.70
2019-02-16T22:26:45.413Z,34.33
2019-02-16T22:29:33.093Z,36.00
2019-02-16T22:32:21.011Z,32.57
2019-02-16T22:35:09.093Z,36.50
2019-02-16T22:37:56.681Z,37.07
2019-02-16T22:40:44.569Z,32.77
2019-02-16T22:43:32.702Z,32.80
2019-02-16T22:46:20.507Z,34.43
2019-02-16T22:49:08.229Z,34.47
2019-02-16T22:51:56.133Z,35.80
2019-02-16T22:54:44.189Z,38.77
2019-02-16T22:57:32.129Z,34.70
2019-02-16T23:00:27.823Z,36.43
2019-02-16T23:03:15.435Z,36.60
2019-02-16T23:06:03.196Z,36.37
2019-02-16T23:08:50.740Z,33.93
2019-02-16T23:11:38.893Z,37.17
2019-02-16T23:14:26.822Z,37.60
2019-02-16T23:17:14.725Z,37.87
2019-02-16T23:20:02.523Z,38.17
2019-02-16T23:22:50.300Z,39.37
2019-02-16T23:25:37.901Z,36.73
2019-02-16T23:28:25.807Z,42.77
2019-02-16T23:31:13.677Z,42.73
2019-02-16T23:34:01.647Z,41.80
2019-02-16T23:36:49.607Z,41.73
2019-02-16T23:39:37.473Z,45.00
2019-02-16T23:42:25.249Z,40.93
2019-02-16T23:45:13.132Z,38.47
2019-02-16T23:48:00.822Z,34.70
2019-02-16T23:50:48.493Z,40.80
2019-02-16T23:53:36.482Z,38.13
2019-02-16T23:56:24.505Z,34.43
2019-02-16T23:59:12.061Z,41.30
